sensor_id;sensor_type;location;lat;lon;timestamp;P1;durP1;ratioP1;P2;durP2;ratioP2
79583;SDS011;69053;57.338;18.700;2024-02-21T00:01:50;4.00;;;1.52;;
79583;SDS011;69053;57.338;18.700;2024-02-21T00:04:50;2.75;;;1.50;;
79583;SDS011;69053;57.338;18.700;2024-02-21T00:07:51;2.88;;;1.75;;
79583;SDS011;69053;57.338;18.700;2024-02-21T00:10:51;3.47;;;1.70;;
79583;SDS011;69053;57.338;18.700;2024-02-21T00:13:52;2.17;;;1.20;;
79583;SDS011;69053;57.338;18.700;2024-02-21T00:16:52;2.58;;;1.52;;
79583;SDS011;69053;57.338;18.700;2024-02-21T00:19:52;4.80;;;1.83;;
79583;SDS011;69053;57.338;18.700;2024-02-21T00:22:53;3.40;;;1.50;;
79583;SDS011;69053;57.338;18.700;2024-02-21T00:25:54;2.58;;;1.27;;
79583;SDS011;69053;57.338;18.700;2024-02-21T00:28:55;3.42;;;1.70;;
79583;SDS011;69053;57.338;18.700;2024-02-21T00:31:55;3.13;;;1.63;;
79583;SDS011;69053;57.338;18.700;2024-02-21T00:34:56;3.75;;;1.65;;
79583;SDS011;69053;57.338;18.700;2024-02-21T00:37:56;4.45;;;1.73;;
79583;SDS011;69053;57.338;18.700;2024-02-21T00:40:57;3.75;;;1.88;;
79583;SDS011;69053;57.338;18.700;2024-02-21T00:43:57;4.35;;;1.83;;
79583;SDS011;69053;57.338;18.700;2024-02-21T00:46:58;4.35;;;1.67;;
79583;SDS011;69053;57.338;18.700;2024-02-21T00:49:58;3.55;;;1.58;;
79583;SDS011;69053;57.338;18.700;2024-02-21T00:52:59;3.40;;;1.52;;
79583;SDS011;69053;57.338;18.700;2024-02-21T00:55:59;4.13;;;1.85;;
79583;SDS011;69053;57.338;18.700;2024-02-21T00:58:59;3.38;;;1.75;;
79583;SDS011;69053;57.338;18.700;2024-02-21T01:02:00;3.17;;;1.63;;
79583;SDS011;69053;57.338;18.700;2024-02-21T01:05:01;2.53;;;1.15;;
79583;SDS011;69053;57.338;18.700;2024-02-21T01:08:02;4.15;;;1.65;;
79583;SDS011;69053;57.338;18.700;2024-02-21T01:11:03;3.80;;;1.63;;
79583;SDS011;69053;57.338;18.700;2024-02-21T01:14:03;2.83;;;1.52;;
79583;SDS011;69053;57.338;18.700;2024-02-21T01:17:04;4.25;;;1.88;;
79583;SDS011;69053;57.338;18.700;2024-02-21T01:20:06;3.90;;;1.98;;
79583;SDS011;69053;57.338;18.700;2024-02-21T01:23:07;4.13;;;1.45;;
79583;SDS011;69053;57.338;18.700;2024-02-21T01:26:07;3.47;;;1.75;;
79583;SDS011;69053;57.338;18.700;2024-02-21T01:29:08;3.70;;;2.03;;
79583;SDS011;69053;57.338;18.700;2024-02-21T01:32:08;4.55;;;1.48;;
79583;SDS011;69053;57.338;18.700;2024-02-21T01:35:09;4.28;;;1.75;;
79583;SDS011;69053;57.338;18.700;2024-02-21T01:38:10;2.50;;;1.35;;
79583;SDS011;69053;57.338;18.700;2024-02-21T01:41:12;3.63;;;1.50;;
79583;SDS011;69053;57.338;18.700;2024-02-21T01:44:13;2.85;;;1.40;;
79583;SDS011;69053;57.338;18.700;2024-02-21T01:47:14;4.82;;;1.85;;
79583;SDS011;69053;57.338;18.700;2024-02-21T01:50:15;4.25;;;1.60;;
79583;SDS011;69053;57.338;18.700;2024-02-21T01:53:17;3.38;;;1.83;;
79583;SDS011;69053;57.338;18.700;2024-02-21T01:56:20;3.70;;;1.80;;
79583;SDS011;69053;57.338;18.700;2024-02-21T01:59:21;3.60;;;1.65;;
79583;SDS011;69053;57.338;18.700;2024-02-21T02:02:22;3.38;;;1.80;;
79583;SDS011;69053;57.338;18.700;2024-02-21T02:05:24;3.35;;;1.90;;
79583;SDS011;69053;57.338;18.700;2024-02-21T02:08:25;4.68;;;1.60;;
79583;SDS011;69053;57.338;18.700;2024-02-21T02:11:26;3.70;;;1.80;;
79583;SDS011;69053;57.338;18.700;2024-02-21T02:14:26;4.85;;;1.45;;
79583;SDS011;69053;57.338;18.700;2024-02-21T02:17:26;4.18;;;1.92;;
79583;SDS011;69053;57.338;18.700;2024-02-21T02:20:27;3.35;;;1.60;;
79583;SDS011;69053;57.338;18.700;2024-02-21T02:23:33;2.72;;;1.42;;
79583;SDS011;69053;57.338;18.700;2024-02-21T02:26:34;5.07;;;1.70;;
79583;SDS011;69053;57.338;18.700;2024-02-21T02:29:34;4.10;;;2.03;;
79583;SDS011;69053;57.338;18.700;2024-02-21T02:32:35;4.80;;;2.20;;
79583;SDS011;69053;57.338;18.700;2024-02-21T02:35:36;5.10;;;2.17;;
79583;SDS011;69053;57.338;18.700;2024-02-21T02:38:36;3.10;;;1.98;;
79583;SDS011;69053;57.338;18.700;2024-02-21T02:41:37;4.47;;;1.73;;
79583;SDS011;69053;57.338;18.700;2024-02-21T02:44:37;4.22;;;1.85;;
79583;SDS011;69053;57.338;18.700;2024-02-21T02:47:39;5.57;;;1.85;;
79583;SDS011;69053;57.338;18.700;2024-02-21T02:50:40;4.07;;;2.20;;
79583;SDS011;69053;57.338;18.700;2024-02-21T02:53:40;3.80;;;1.63;;
79583;SDS011;69053;57.338;18.700;2024-02-21T02:56:41;6.35;;;2.53;;
79583;SDS011;69053;57.338;18.700;2024-02-21T02:59:41;4.30;;;2.17;;
79583;SDS011;69053;57.338;18.700;2024-02-21T03:02:43;4.05;;;1.63;;
79583;SDS011;69053;57.338;18.700;2024-02-21T03:05:46;4.35;;;1.80;;
79583;SDS011;69053;57.338;18.700;2024-02-21T03:08:46;5.05;;;1.88;;
79583;SDS011;69053;57.338;18.700;2024-02-21T03:11:46;3.72;;;1.98;;
79583;SDS011;69053;57.338;18.700;2024-02-21T03:14:47;4.32;;;2.10;;
79583;SDS011;69053;57.338;18.700;2024-02-21T03:17:47;4.45;;;1.63;;
79583;SDS011;69053;57.338;18.700;2024-02-21T03:20:48;5.03;;;2.00;;
79583;SDS011;69053;57.338;18.700;2024-02-21T03:23:48;4.07;;;1.77;;
79583;SDS011;69053;57.338;18.700;2024-02-21T03:26:49;7.10;;;1.35;;
79583;SDS011;69053;57.338;18.700;2024-02-21T03:29:49;3.60;;;1.30;;
79583;SDS011;69053;57.338;18.700;2024-02-21T03:32:50;4.10;;;1.63;;
79583;SDS011;69053;57.338;18.700;2024-02-21T03:35:50;5.20;;;1.60;;
79583;SDS011;69053;57.338;18.700;2024-02-21T03:38:51;6.88;;;1.75;;
79583;SDS011;69053;57.338;18.700;2024-02-21T03:41:51;6.28;;;1.23;;
79583;SDS011;69053;57.338;18.700;2024-02-21T03:44:52;7.07;;;2.15;;
79583;SDS011;69053;57.338;18.700;2024-02-21T03:47:52;6.03;;;1.58;;
79583;SDS011;69053;57.338;18.700;2024-02-21T03:50:53;5.90;;;1.88;;
79583;SDS011;69053;57.338;18.700;2024-02-21T03:53:53;4.72;;;1.85;;
79583;SDS011;69053;57.338;18.700;2024-02-21T03:56:53;10.20;;;2.17;;
79583;SDS011;69053;57.338;18.700;2024-02-21T03:59:54;5.25;;;1.73;;
79583;SDS011;69053;57.338;18.700;2024-02-21T04:02:54;11.15;;;1.65;;
79583;SDS011;69053;57.338;18.700;2024-02-21T04:05:55;9.93;;;2.15;;
79583;SDS011;69053;57.338;18.700;2024-02-21T04:08:56;8.10;;;1.88;;
79583;SDS011;69053;57.338;18.700;2024-02-21T04:11:57;7.97;;;1.95;;
79583;SDS011;69053;57.338;18.700;2024-02-21T04:14:57;10.73;;;2.55;;
79583;SDS011;69053;57.338;18.700;2024-02-21T04:17:58;4.95;;;2.22;;
79583;SDS011;69053;57.338;18.700;2024-02-21T04:20:58;9.60;;;3.15;;
79583;SDS011;69053;57.338;18.700;2024-02-21T04:23:59;15.23;;;3.80;;
79583;SDS011;69053;57.338;18.700;2024-02-21T04:26:59;11.45;;;2.97;;
79583;SDS011;69053;57.338;18.700;2024-02-21T04:30:00;13.90;;;3.58;;
79583;SDS011;69053;57.338;18.700;2024-02-21T04:33:00;16.52;;;3.40;;
79583;SDS011;69053;57.338;18.700;2024-02-21T04:36:00;16.73;;;3.95;;
79583;SDS011;69053;57.338;18.700;2024-02-21T04:39:02;15.07;;;3.53;;
79583;SDS011;69053;57.338;18.700;2024-02-21T04:42:02;17.88;;;3.83;;
79583;SDS011;69053;57.338;18.700;2024-02-21T04:45:03;15.75;;;3.33;;
79583;SDS011;69053;57.338;18.700;2024-02-21T04:48:04;14.18;;;2.75;;
79583;SDS011;69053;57.338;18.700;2024-02-21T04:51:05;20.60;;;3.58;;
79583;SDS011;69053;57.338;18.700;2024-02-21T04:54:05;16.73;;;3.45;;
79583;SDS011;69053;57.338;18.700;2024-02-21T04:57:05;20.33;;;4.20;;
79583;SDS011;69053;57.338;18.700;2024-02-21T05:00:06;24.42;;;4.45;;
79583;SDS011;69053;57.338;18.700;2024-02-21T05:03:07;22.35;;;5.07;;
79583;SDS011;69053;57.338;18.700;2024-02-21T05:06:07;15.13;;;3.70;;
79583;SDS011;69053;57.338;18.700;2024-02-21T05:09:08;20.58;;;4.20;;
79583;SDS011;69053;57.338;18.700;2024-02-21T05:12:09;19.80;;;4.10;;
79583;SDS011;69053;57.338;18.700;2024-02-21T05:15:09;18.73;;;3.42;;
79583;SDS011;69053;57.338;18.700;2024-02-21T05:18:10;24.20;;;3.22;;
79583;SDS011;69053;57.338;18.700;2024-02-21T05:21:10;29.98;;;4.65;;
79583;SDS011;69053;57.338;18.700;2024-02-21T05:24:11;19.95;;;2.83;;
79583;SDS011;69053;57.338;18.700;2024-02-21T05:27:12;26.30;;;4.68;;
79583;SDS011;69053;57.338;18.700;2024-02-21T05:30:12;20.60;;;3.15;;
79583;SDS011;69053;57.338;18.700;2024-02-21T05:33:13;20.45;;;3.70;;
79583;SDS011;69053;57.338;18.700;2024-02-21T05:36:21;19.00;;;3.40;;
79583;SDS011;69053;57.338;18.700;2024-02-21T05:39:21;28.20;;;4.35;;
79583;SDS011;69053;57.338;18.700;2024-02-21T05:42:22;23.00;;;4.07;;
79583;SDS011;69053;57.338;18.700;2024-02-21T05:45:23;17.67;;;3.40;;
79583;SDS011;69053;57.338;18.700;2024-02-21T05:48:24;13.75;;;3.42;;
79583;SDS011;69053;57.338;18.700;2024-02-21T05:51:24;19.70;;;3.03;;
79583;SDS011;69053;57.338;18.700;2024-02-21T05:54:25;18.60;;;4.85;;
79583;SDS011;69053;57.338;18.700;2024-02-21T05:57:25;30.83;;;3.90;;
79583;SDS011;69053;57.338;18.700;2024-02-21T06:00:26;25.38;;;3.53;;
79583;SDS011;69053;57.338;18.700;2024-02-21T06:03:28;16.88;;;4.13;;
79583;SDS011;69053;57.338;18.700;2024-02-21T06:06:28;16.48;;;3.47;;
79583;SDS011;69053;57.338;18.700;2024-02-21T06:09:28;12.85;;;3.72;;
79583;SDS011;69053;57.338;18.700;2024-02-21T06:12:29;16.52;;;3.15;;
79583;SDS011;69053;57.338;18.700;2024-02-21T06:15:29;9.95;;;2.65;;
79583;SDS011;69053;57.338;18.700;2024-02-21T06:18:30;16.25;;;3.58;;
79583;SDS011;69053;57.338;18.700;2024-02-21T06:21:30;14.20;;;3.33;;
79583;SDS011;69053;57.338;18.700;2024-02-21T06:24:31;21.30;;;4.22;;
79583;SDS011;69053;57.338;18.700;2024-02-21T06:27:31;15.02;;;3.53;;
79583;SDS011;69053;57.338;18.700;2024-02-21T06:30:31;15.23;;;3.63;;
79583;SDS011;69053;57.338;18.700;2024-02-21T06:33:32;22.92;;;4.10;;
79583;SDS011;69053;57.338;18.700;2024-02-21T06:36:32;16.33;;;4.82;;
79583;SDS011;69053;57.338;18.700;2024-02-21T06:39:33;13.25;;;3.28;;
79583;SDS011;69053;57.338;18.700;2024-02-21T06:42:33;13.52;;;3.65;;
79583;SDS011;69053;57.338;18.700;2024-02-21T06:45:34;13.80;;;4.30;;
79583;SDS011;69053;57.338;18.700;2024-02-21T06:48:34;14.15;;;3.95;;
79583;SDS011;69053;57.338;18.700;2024-02-21T06:51:34;19.67;;;4.03;;
79583;SDS011;69053;57.338;18.700;2024-02-21T06:54:37;23.17;;;4.47;;
79583;SDS011;69053;57.338;18.700;2024-02-21T06:57:39;19.77;;;5.05;;
79583;SDS011;69053;57.338;18.700;2024-02-21T07:00:40;19.88;;;4.53;;
79583;SDS011;69053;57.338;18.700;2024-02-21T07:03:42;21.13;;;4.45;;
79583;SDS011;69053;57.338;18.700;2024-02-21T07:06:42;13.90;;;3.88;;
79583;SDS011;69053;57.338;18.700;2024-02-21T07:09:43;16.85;;;4.50;;
79583;SDS011;69053;57.338;18.700;2024-02-21T07:12:43;16.60;;;5.57;;
79583;SDS011;69053;57.338;18.700;2024-02-21T07:15:44;19.67;;;5.30;;
79583;SDS011;69053;57.338;18.700;2024-02-21T07:18:44;14.85;;;4.78;;
79583;SDS011;69053;57.338;18.700;2024-02-21T07:21:45;12.75;;;4.53;;
79583;SDS011;69053;57.338;18.700;2024-02-21T07:24:45;15.82;;;4.88;;
79583;SDS011;69053;57.338;18.700;2024-02-21T07:27:46;18.02;;;5.85;;
79583;SDS011;69053;57.338;18.700;2024-02-21T07:30:46;20.10;;;5.68;;
79583;SDS011;69053;57.338;18.700;2024-02-21T07:33:47;17.98;;;4.90;;
79583;SDS011;69053;57.338;18.700;2024-02-21T07:36:47;19.10;;;6.53;;
79583;SDS011;69053;57.338;18.700;2024-02-21T07:39:47;31.55;;;6.10;;
79583;SDS011;69053;57.338;18.700;2024-02-21T07:42:48;21.45;;;5.07;;
79583;SDS011;69053;57.338;18.700;2024-02-21T07:45:48;21.00;;;5.60;;
79583;SDS011;69053;57.338;18.700;2024-02-21T07:48:49;21.20;;;5.10;;
79583;SDS011;69053;57.338;18.700;2024-02-21T07:51:50;15.05;;;5.13;;
79583;SDS011;69053;57.338;18.700;2024-02-21T07:54:52;18.23;;;5.55;;
79583;SDS011;69053;57.338;18.700;2024-02-21T07:57:52;16.83;;;4.78;;
79583;SDS011;69053;57.338;18.700;2024-02-21T08:00:53;18.25;;;5.53;;
79583;SDS011;69053;57.338;18.700;2024-02-21T08:03:53;18.48;;;5.75;;
79583;SDS011;69053;57.338;18.700;2024-02-21T08:06:54;15.35;;;5.22;;
79583;SDS011;69053;57.338;18.700;2024-02-21T08:09:55;18.05;;;5.57;;
79583;SDS011;69053;57.338;18.700;2024-02-21T08:12:56;13.38;;;5.80;;
79583;SDS011;69053;57.338;18.700;2024-02-21T08:15:57;15.85;;;5.28;;
79583;SDS011;69053;57.338;18.700;2024-02-21T08:18:57;21.42;;;6.43;;
79583;SDS011;69053;57.338;18.700;2024-02-21T08:21:59;30.63;;;8.35;;
79583;SDS011;69053;57.338;18.700;2024-02-21T08:25:00;41.13;;;10.20;;
79583;SDS011;69053;57.338;18.700;2024-02-21T08:28:00;35.70;;;11.05;;
79583;SDS011;69053;57.338;18.700;2024-02-21T08:31:01;34.35;;;10.02;;
79583;SDS011;69053;57.338;18.700;2024-02-21T08:34:02;21.73;;;6.70;;
79583;SDS011;69053;57.338;18.700;2024-02-21T08:37:03;14.20;;;5.70;;
79583;SDS011;69053;57.338;18.700;2024-02-21T08:40:04;24.85;;;6.78;;
79583;SDS011;69053;57.338;18.700;2024-02-21T08:43:08;18.52;;;6.28;;
79583;SDS011;69053;57.338;18.700;2024-02-21T08:46:08;20.33;;;6.25;;
79583;SDS011;69053;57.338;18.700;2024-02-21T08:49:09;26.88;;;7.00;;
79583;SDS011;69053;57.338;18.700;2024-02-21T08:52:10;22.13;;;6.53;;
79583;SDS011;69053;57.338;18.700;2024-02-21T08:55:10;20.10;;;6.80;;
79583;SDS011;69053;57.338;18.700;2024-02-21T08:58:11;23.38;;;7.18;;
79583;SDS011;69053;57.338;18.700;2024-02-21T09:01:12;29.92;;;6.95;;
79583;SDS011;69053;57.338;18.700;2024-02-21T09:04:12;21.67;;;6.65;;
79583;SDS011;69053;57.338;18.700;2024-02-21T09:07:13;32.97;;;7.75;;
79583;SDS011;69053;57.338;18.700;2024-02-21T09:10:13;20.55;;;7.25;;
79583;SDS011;69053;57.338;18.700;2024-02-21T09:13:14;24.70;;;7.53;;
79583;SDS011;69053;57.338;18.700;2024-02-21T09:16:14;19.27;;;6.80;;
79583;SDS011;69053;57.338;18.700;2024-02-21T09:19:15;22.10;;;7.97;;
79583;SDS011;69053;57.338;18.700;2024-02-21T09:22:15;24.75;;;8.20;;
79583;SDS011;69053;57.338;18.700;2024-02-21T09:25:15;25.20;;;7.22;;
79583;SDS011;69053;57.338;18.700;2024-02-21T09:28:17;20.55;;;7.50;;
79583;SDS011;69053;57.338;18.700;2024-02-21T09:31:17;17.42;;;6.50;;
79583;SDS011;69053;57.338;18.700;2024-02-21T09:34:18;23.60;;;7.35;;
79583;SDS011;69053;57.338;18.700;2024-02-21T09:37:18;19.77;;;6.22;;
79583;SDS011;69053;57.338;18.700;2024-02-21T09:40:19;19.13;;;6.22;;
79583;SDS011;69053;57.338;18.700;2024-02-21T09:43:20;19.13;;;6.47;;
79583;SDS011;69053;57.338;18.700;2024-02-21T09:46:42;17.98;;;6.00;;
79583;SDS011;69053;57.338;18.700;2024-02-21T09:49:58;18.25;;;6.35;;
79583;SDS011;69053;57.338;18.700;2024-02-21T09:53:00;16.55;;;6.40;;
79583;SDS011;69053;57.338;18.700;2024-02-21T09:56:02;18.90;;;5.65;;
79583;SDS011;69053;57.338;18.700;2024-02-21T09:59:05;16.15;;;6.68;;
79583;SDS011;69053;57.338;18.700;2024-02-21T10:02:07;21.45;;;7.50;;
79583;SDS011;69053;57.338;18.700;2024-02-21T10:05:07;16.00;;;6.10;;
79583;SDS011;69053;57.338;18.700;2024-02-21T10:08:13;16.27;;;6.07;;
79583;SDS011;69053;57.338;18.700;2024-02-21T10:11:21;19.65;;;6.65;;
79583;SDS011;69053;57.338;18.700;2024-02-21T10:14:25;13.57;;;6.18;;
79583;SDS011;69053;57.338;18.700;2024-02-21T10:17:26;17.42;;;6.40;;
79583;SDS011;69053;57.338;18.700;2024-02-21T10:20:26;14.35;;;4.68;;
79583;SDS011;69053;57.338;18.700;2024-02-21T10:23:27;14.40;;;5.57;;
79583;SDS011;69053;57.338;18.700;2024-02-21T10:26:28;11.75;;;5.32;;
79583;SDS011;69053;57.338;18.700;2024-02-21T10:29:29;8.48;;;3.95;;
79583;SDS011;69053;57.338;18.700;2024-02-21T10:32:32;9.98;;;4.50;;
79583;SDS011;69053;57.338;18.700;2024-02-21T10:35:33;9.50;;;4.85;;
79583;SDS011;69053;57.338;18.700;2024-02-21T10:38:33;9.32;;;3.72;;
79583;SDS011;69053;57.338;18.700;2024-02-21T10:41:33;13.70;;;5.78;;
79583;SDS011;69053;57.338;18.700;2024-02-21T10:44:37;12.30;;;4.93;;
79583;SDS011;69053;57.338;18.700;2024-02-21T10:47:39;10.57;;;4.05;;
79583;SDS011;69053;57.338;18.700;2024-02-21T10:54:05;22.00;;;7.13;;
79583;SDS011;69053;57.338;18.700;2024-02-21T10:57:22;9.68;;;4.35;;
79583;SDS011;69053;57.338;18.700;2024-02-21T11:00:24;10.02;;;5.20;;
79583;SDS011;69053;57.338;18.700;2024-02-21T11:03:30;13.80;;;5.05;;
79583;SDS011;69053;57.338;18.700;2024-02-21T11:06:30;12.77;;;4.97;;
79583;SDS011;69053;57.338;18.700;2024-02-21T11:09:33;13.90;;;5.78;;
79583;SDS011;69053;57.338;18.700;2024-02-21T11:12:33;11.48;;;5.13;;
79583;SDS011;69053;57.338;18.700;2024-02-21T11:15:34;13.18;;;5.55;;
79583;SDS011;69053;57.338;18.700;2024-02-21T11:18:35;13.77;;;5.22;;
79583;SDS011;69053;57.338;18.700;2024-02-21T11:21:35;10.27;;;4.72;;
79583;SDS011;69053;57.338;18.700;2024-02-21T11:24:37;10.90;;;4.55;;
79583;SDS011;69053;57.338;18.700;2024-02-21T11:27:38;8.63;;;3.85;;
79583;SDS011;69053;57.338;18.700;2024-02-21T11:30:38;10.80;;;4.13;;
79583;SDS011;69053;57.338;18.700;2024-02-21T11:33:40;7.90;;;3.78;;
79583;SDS011;69053;57.338;18.700;2024-02-21T11:36:48;7.70;;;4.72;;
79583;SDS011;69053;57.338;18.700;2024-02-21T11:39:50;8.05;;;3.80;;
79583;SDS011;69053;57.338;18.700;2024-02-21T11:42:50;7.50;;;3.67;;
79583;SDS011;69053;57.338;18.700;2024-02-21T11:45:57;7.13;;;3.60;;
79583;SDS011;69053;57.338;18.700;2024-02-21T11:48:59;8.13;;;3.50;;
79583;SDS011;69053;57.338;18.700;2024-02-21T11:52:02;7.53;;;3.60;;
79583;SDS011;69053;57.338;18.700;2024-02-21T11:55:07;7.82;;;3.88;;
79583;SDS011;69053;57.338;18.700;2024-02-21T11:58:08;6.93;;;3.53;;
79583;SDS011;69053;57.338;18.700;2024-02-21T12:01:08;8.88;;;3.75;;
79583;SDS011;69053;57.338;18.700;2024-02-21T12:04:09;7.78;;;3.10;;
79583;SDS011;69053;57.338;18.700;2024-02-21T12:07:10;8.43;;;3.90;;
79583;SDS011;69053;57.338;18.700;2024-02-21T12:10:11;5.72;;;2.92;;
79583;SDS011;69053;57.338;18.700;2024-02-21T12:13:12;6.72;;;3.10;;
79583;SDS011;69053;57.338;18.700;2024-02-21T12:16:15;7.28;;;3.25;;
79583;SDS011;69053;57.338;18.700;2024-02-21T12:19:18;6.68;;;3.00;;
79583;SDS011;69053;57.338;18.700;2024-02-21T12:22:18;4.85;;;2.40;;
79583;SDS011;69053;57.338;18.700;2024-02-21T12:25:20;4.25;;;2.08;;
79583;SDS011;69053;57.338;18.700;2024-02-21T12:28:22;3.90;;;1.98;;
79583;SDS011;69053;57.338;18.700;2024-02-21T12:31:23;5.38;;;2.90;;
79583;SDS011;69053;57.338;18.700;2024-02-21T12:34:23;6.03;;;2.90;;
79583;SDS011;69053;57.338;18.700;2024-02-21T12:37:25;4.60;;;2.50;;
79583;SDS011;69053;57.338;18.700;2024-02-21T12:40:25;6.22;;;3.38;;
79583;SDS011;69053;57.338;18.700;2024-02-21T12:43:32;5.72;;;3.17;;
79583;SDS011;69053;57.338;18.700;2024-02-21T12:46:33;6.45;;;3.55;;
79583;SDS011;69053;57.338;18.700;2024-02-21T12:49:34;7.75;;;3.72;;
79583;SDS011;69053;57.338;18.700;2024-02-21T12:52:35;6.18;;;3.40;;
79583;SDS011;69053;57.338;18.700;2024-02-21T12:55:35;7.30;;;3.85;;
79583;SDS011;69053;57.338;18.700;2024-02-21T12:58:36;6.65;;;3.65;;
79583;SDS011;69053;57.338;18.700;2024-02-21T13:01:36;7.05;;;3.15;;
79583;SDS011;69053;57.338;18.700;2024-02-21T13:04:40;6.38;;;3.78;;
79583;SDS011;69053;57.338;18.700;2024-02-21T13:07:41;6.13;;;3.30;;
79583;SDS011;69053;57.338;18.700;2024-02-21T13:10:41;8.27;;;3.97;;
79583;SDS011;69053;57.338;18.700;2024-02-21T13:13:42;7.57;;;3.40;;
79583;SDS011;69053;57.338;18.700;2024-02-21T13:16:42;5.78;;;3.47;;
79583;SDS011;69053;57.338;18.700;2024-02-21T13:19:43;8.55;;;4.25;;
79583;SDS011;69053;57.338;18.700;2024-02-21T13:22:43;9.10;;;4.65;;
79583;SDS011;69053;57.338;18.700;2024-02-21T13:25:43;11.52;;;5.47;;
79583;SDS011;69053;57.338;18.700;2024-02-21T13:28:47;9.95;;;4.32;;
79583;SDS011;69053;57.338;18.700;2024-02-21T13:31:48;11.00;;;5.70;;
79583;SDS011;69053;57.338;18.700;2024-02-21T13:34:49;10.77;;;5.18;;
79583;SDS011;69053;57.338;18.700;2024-02-21T13:37:52;12.43;;;5.60;;
79583;SDS011;69053;57.338;18.700;2024-02-21T13:40:52;8.02;;;4.43;;
79583;SDS011;69053;57.338;18.700;2024-02-21T13:43:53;9.90;;;4.90;;
79583;SDS011;69053;57.338;18.700;2024-02-21T13:46:54;11.18;;;5.22;;
79583;SDS011;69053;57.338;18.700;2024-02-21T13:49:54;9.25;;;4.38;;
79583;SDS011;69053;57.338;18.700;2024-02-21T13:52:55;8.30;;;4.20;;
79583;SDS011;69053;57.338;18.700;2024-02-21T13:55:56;7.97;;;3.83;;
79583;SDS011;69053;57.338;18.700;2024-02-21T13:59:00;8.38;;;3.75;;
79583;SDS011;69053;57.338;18.700;2024-02-21T14:02:00;7.82;;;3.70;;
79583;SDS011;69053;57.338;18.700;2024-02-21T14:05:01;9.55;;;4.80;;
79583;SDS011;69053;57.338;18.700;2024-02-21T14:08:05;8.80;;;3.83;;
79583;SDS011;69053;57.338;18.700;2024-02-21T14:11:06;7.18;;;4.13;;
79583;SDS011;69053;57.338;18.700;2024-02-21T14:14:07;8.38;;;3.70;;
79583;SDS011;69053;57.338;18.700;2024-02-21T14:17:08;7.40;;;4.10;;
79583;SDS011;69053;57.338;18.700;2024-02-21T14:20:08;7.72;;;3.65;;
79583;SDS011;69053;57.338;18.700;2024-02-21T14:23:09;7.43;;;3.58;;
79583;SDS011;69053;57.338;18.700;2024-02-21T14:26:09;7.75;;;3.70;;
79583;SDS011;69053;57.338;18.700;2024-02-21T14:29:10;7.72;;;4.00;;
79583;SDS011;69053;57.338;18.700;2024-02-21T14:32:10;8.23;;;3.90;;
79583;SDS011;69053;57.338;18.700;2024-02-21T14:35:13;7.65;;;3.30;;
79583;SDS011;69053;57.338;18.700;2024-02-21T14:38:15;7.50;;;3.53;;
79583;SDS011;69053;57.338;18.700;2024-02-21T14:41:15;6.32;;;3.60;;
79583;SDS011;69053;57.338;18.700;2024-02-21T14:44:16;7.13;;;3.97;;
79583;SDS011;69053;57.338;18.700;2024-02-21T14:47:16;7.70;;;3.72;;
79583;SDS011;69053;57.338;18.700;2024-02-21T14:50:17;7.82;;;3.97;;
79583;SDS011;69053;57.338;18.700;2024-02-21T14:53:17;8.70;;;4.18;;
79583;SDS011;69053;57.338;18.700;2024-02-21T14:56:18;7.53;;;4.07;;
79583;SDS011;69053;57.338;18.700;2024-02-21T14:59:18;9.88;;;4.18;;
79583;SDS011;69053;57.338;18.700;2024-02-21T15:02:19;7.78;;;3.97;;
79583;SDS011;69053;57.338;18.700;2024-02-21T15:05:19;8.10;;;3.58;;
79583;SDS011;69053;57.338;18.700;2024-02-21T15:08:20;8.10;;;3.53;;
79583;SDS011;69053;57.338;18.700;2024-02-21T15:11:20;8.27;;;4.05;;
79583;SDS011;69053;57.338;18.700;2024-02-21T15:14:22;7.03;;;3.92;;
79583;SDS011;69053;57.338;18.700;2024-02-21T15:17:22;11.32;;;4.43;;
79583;SDS011;69053;57.338;18.700;2024-02-21T15:20:23;9.70;;;4.70;;
79583;SDS011;69053;57.338;18.700;2024-02-21T15:23:23;9.07;;;4.15;;
79583;SDS011;69053;57.338;18.700;2024-02-21T15:26:24;9.38;;;4.50;;
79583;SDS011;69053;57.338;18.700;2024-02-21T15:29:25;10.13;;;5.03;;
79583;SDS011;69053;57.338;18.700;2024-02-21T15:32:25;10.85;;;4.70;;
79583;SDS011;69053;57.338;18.700;2024-02-21T15:35:26;9.18;;;4.22;;
79583;SDS011;69053;57.338;18.700;2024-02-21T15:38:29;7.72;;;4.03;;
79583;SDS011;69053;57.338;18.700;2024-02-21T15:41:30;8.57;;;4.35;;
79583;SDS011;69053;57.338;18.700;2024-02-21T15:44:30;10.40;;;4.88;;
79583;SDS011;69053;57.338;18.700;2024-02-21T15:47:31;9.73;;;5.43;;
79583;SDS011;69053;57.338;18.700;2024-02-21T15:50:31;12.18;;;5.28;;
79583;SDS011;69053;57.338;18.700;2024-02-21T15:53:33;9.98;;;4.18;;
79583;SDS011;69053;57.338;18.700;2024-02-21T15:56:33;9.43;;;4.20;;
79583;SDS011;69053;57.338;18.700;2024-02-21T15:59:34;9.60;;;4.20;;
79583;SDS011;69053;57.338;18.700;2024-02-21T16:02:34;8.25;;;4.22;;
79583;SDS011;69053;57.338;18.700;2024-02-21T16:05:35;10.02;;;5.03;;
79583;SDS011;69053;57.338;18.700;2024-02-21T16:08:35;7.45;;;4.25;;
79583;SDS011;69053;57.338;18.700;2024-02-21T16:11:40;8.77;;;3.60;;
79583;SDS011;69053;57.338;18.700;2024-02-21T16:14:41;7.30;;;3.40;;
79583;SDS011;69053;57.338;18.700;2024-02-21T16:17:42;7.47;;;3.28;;
79583;SDS011;69053;57.338;18.700;2024-02-21T16:20:42;10.63;;;4.72;;
79583;SDS011;69053;57.338;18.700;2024-02-21T16:23:43;8.63;;;3.90;;
79583;SDS011;69053;57.338;18.700;2024-02-21T16:26:43;8.73;;;5.00;;
79583;SDS011;69053;57.338;18.700;2024-02-21T16:29:44;7.05;;;3.30;;
79583;SDS011;69053;57.338;18.700;2024-02-21T16:32:44;9.48;;;4.30;;
79583;SDS011;69053;57.338;18.700;2024-02-21T16:35:45;9.52;;;3.85;;
79583;SDS011;69053;57.338;18.700;2024-02-21T16:38:46;6.72;;;3.35;;
79583;SDS011;69053;57.338;18.700;2024-02-21T16:41:46;8.43;;;4.03;;
79583;SDS011;69053;57.338;18.700;2024-02-21T16:44:49;9.38;;;4.05;;
79583;SDS011;69053;57.338;18.700;2024-02-21T16:47:50;6.93;;;3.58;;
79583;SDS011;69053;57.338;18.700;2024-02-21T16:50:51;5.57;;;3.40;;
79583;SDS011;69053;57.338;18.700;2024-02-21T16:53:51;8.60;;;3.33;;
79583;SDS011;69053;57.338;18.700;2024-02-21T16:56:52;8.00;;;3.40;;
79583;SDS011;69053;57.338;18.700;2024-02-21T16:59:52;7.00;;;3.15;;
79583;SDS011;69053;57.338;18.700;2024-02-21T17:02:53;4.78;;;2.38;;
79583;SDS011;69053;57.338;18.700;2024-02-21T17:05:53;4.57;;;2.42;;
79583;SDS011;69053;57.338;18.700;2024-02-21T17:08:56;7.05;;;3.58;;
79583;SDS011;69053;57.338;18.700;2024-02-21T17:11:56;5.55;;;2.83;;
79583;SDS011;69053;57.338;18.700;2024-02-21T17:14:58;7.63;;;2.97;;
79583;SDS011;69053;57.338;18.700;2024-02-21T17:17:59;5.85;;;2.88;;
79583;SDS011;69053;57.338;18.700;2024-02-21T17:20:59;5.90;;;2.72;;
79583;SDS011;69053;57.338;18.700;2024-02-21T17:23:59;4.90;;;2.42;;
79583;SDS011;69053;57.338;18.700;2024-02-21T17:27:01;8.23;;;2.60;;
79583;SDS011;69053;57.338;18.700;2024-02-21T17:30:03;6.82;;;2.53;;
79583;SDS011;69053;57.338;18.700;2024-02-21T17:33:06;4.90;;;2.50;;
79583;SDS011;69053;57.338;18.700;2024-02-21T17:36:09;6.90;;;2.08;;
79583;SDS011;69053;57.338;18.700;2024-02-21T17:39:10;4.15;;;1.95;;
79583;SDS011;69053;57.338;18.700;2024-02-21T17:42:11;3.70;;;1.85;;
79583;SDS011;69053;57.338;18.700;2024-02-21T17:45:11;4.78;;;2.38;;
79583;SDS011;69053;57.338;18.700;2024-02-21T17:48:11;9.75;;;5.72;;
79583;SDS011;69053;57.338;18.700;2024-02-21T17:51:12;5.57;;;2.30;;